Robert G. Stone, Jr. — WDD4596 — position and weather

sailwx.info

Track history (hours):
 
Tides and Currents Weather Stations Pressure Air Temp Water Temp Dewpoint Dewpoint Depression Visibility Wind Speed Wind Dir Waves Ship Positions

Robert G. Stone, Jr.

Owner: Kirby Inland Marine, LP, Houston, TX. More information available from US FCC via Universal Licensing System and Coast Guard Vessel Documentation Center.

Last reported at 2017-Dec-11 14:46 UTC. Time now 2017-Dec-13 07:20 UTC.
Position N 29°48' W 091°49'.

Length 210 m; draft 2.8 m.

Type: . MMSI: 367146780.

Date/timePositionNaut miles runAvg speedWind from/ knotsBaromVisibWave heightAir tempDewpointWater temp
2017-Dec-11 14:46N 29°48' W 091°49'1 5.3
2017-Dec-11 14:31N 29°49' W 091°49'3 5.3
2017-Dec-11 14:00N 29°51' W 091°52'3 6.4
2017-Dec-11 13:30N 29°51' W 091°55'3 5.5
2017-Dec-11 13:00N 29°50' W 091°58'3 5.8
2017-Dec-11 12:31N 29°49' W 092°02'3 5.4
2017-Dec-11 11:58N 29°48' W 092°05'3 5.5
2017-Dec-11 11:30N 29°47' W 092°07'3 5.8
2017-Dec-11 11:00N 29°47' W 092°11'2 4.5
2017-Dec-11 10:30N 29°47' W 092°13'0 0.9
2017-Dec-11 10:01N 29°48' W 092°14'1 1.7
2017-Dec-11 09:31N 29°48' W 092°14'3 5.8
2017-Dec-11 09:01N 29°49' W 092°17'2 3.9
2017-Dec-11 08:31N 29°50' W 092°19'2 4.7
2017-Dec-11 08:00N 29°51' W 092°22'2 3.3
2017-Dec-11 07:30N 29°52' W 092°23'3 5.1
2017-Dec-11 06:51N 29°53' W 092°27'33 5.6
2017-Dec-11 00:53N 29°56' W 093°05'2 5.2
2017-Dec-11 00:30N 29°56' W 093°07'3 5.1
2017-Dec-11 00:01N 29°56' W 093°10'3 5.3
2017-Dec-10 23:31N 29°59' W 093°12'2 4.9
2017-Dec-10 23:01N 30°00' W 093°14'2 4.0
2017-Dec-10 22:31N 30°02' W 093°15'2 5.0
2017-Dec-10 22:00N 30°04' W 093°16'2 3.2
2017-Dec-10 21:30N 30°05' W 093°18'1 2.1
2017-Dec-10 21:00N 30°06' W 093°19'3 5.2
2017-Dec-10 20:31N 30°04' W 093°21'2 4.1
2017-Dec-10 20:00N 30°04' W 093°23'2 4.4
2017-Dec-10 19:30N 30°04' W 093°25'3 5.7
2017-Dec-10 19:01N 30°04' W 093°29'3 5.7
2017-Dec-10 18:30N 30°04' W 093°32'3 5.7
2017-Dec-10 17:57N 30°04' W 093°36'3 6.7
2017-Dec-10 17:28N 30°04' W 093°39'12 7.1
2017-Dec-10 15:49N 29°58' W 093°51'3 8.2
2017-Dec-10 15:30N 29°56' W 093°53'5 9.0
2017-Dec-10 15:00N 29°52' W 093°56'56 1.4
2017-Dec-08 23:01N 29°21' W 094°49'2 7.7
2017-Dec-08 22:49N 29°22' W 094°47'2 7.7
2017-Dec-08 22:30N 29°24' W 094°45'67 2.7
2017-Dec-07 21:32N 30°03' W 093°42'1 7.2
2017-Dec-07 21:24N 30°04' W 093°41'3 7.4
2017-Dec-07 21:01N 30°04' W 093°38'3 6.7
2017-Dec-07 20:31N 30°04' W 093°34'3 6.0
2017-Dec-07 20:01N 30°04' W 093°31'3 5.0
2017-Dec-07 19:31N 30°04' W 093°28'3 6.2
2017-Dec-07 19:01N 30°04' W 093°24'3 5.3
2017-Dec-07 18:31N 30°04' W 093°21'2 4.6
2017-Dec-07 18:01N 30°05' W 093°20'1 1.9
2017-Dec-07 17:31N 30°06' W 093°19'0 0.1
2017-Dec-07 17:01N 30°06' W 093°19'0 0.0
2017-Dec-07 16:31N 30°06' W 093°19'0 0.4
2017-Dec-07 16:00N 30°06' W 093°18'1 2.8
2017-Dec-07 15:30N 30°05' W 093°17'1 1.5
2017-Dec-07 15:00N 30°05' W 093°17'0 0.0
2017-Dec-07 14:31N 30°05' W 093°17'0 0.0
2017-Dec-07 14:01N 30°05' W 093°17'0 0.0
2017-Dec-07 13:31N 30°05' W 093°17'0 0.0
2017-Dec-07 13:00N 30°05' W 093°17'0 0.1
2017-Dec-07 12:30N 30°05' W 093°17'0 0.0
2017-Dec-07 12:01N 30°05' W 093°17'0 0.6
2017-Dec-07 11:31N 30°04' W 093°16'0 0.0
2017-Dec-07 11:01N 30°04' W 093°16'0 0.0
2017-Dec-07 10:31N 30°04' W 093°16'0 0.0
2017-Dec-07 10:01N 30°04' W 093°16'0 0.0
2017-Dec-07 09:31N 30°04' W 093°16'0 0.0
2017-Dec-07 09:01N 30°04' W 093°16'0 0.0
2017-Dec-07 08:31N 30°04' W 093°16'0 0.0
2017-Dec-07 08:01N 30°04' W 093°16'0 0.1
2017-Dec-07 07:31N 30°04' W 093°16'0 0.1
2017-Dec-07 07:01N 30°04' W 093°16'0 0.0
2017-Dec-07 06:30N 30°04' W 093°16'0 0.0
2017-Dec-07 06:01N 30°04' W 093°16'0 0.0
2017-Dec-07 05:31N 30°04' W 093°16'0 0.0
2017-Dec-07 05:01N 30°04' W 093°16'0 0.0
2017-Dec-07 04:31N 30°04' W 093°16'0 0.1
2017-Dec-07 04:01N 30°04' W 093°16'0 0.0
2017-Dec-07 03:31N 30°04' W 093°16'0 0.0
2017-Dec-07 03:01N 30°04' W 093°16'0 0.0
2017-Dec-07 02:31N 30°04' W 093°16'0 0.0
2017-Dec-07 02:01N 30°04' W 093°16'0 0.1
2017-Dec-06 23:11N 30°04' W 093°16'0 0.0
2017-Dec-06 23:00N 30°04' W 093°16'1 1.5
2017-Dec-06 22:31N 30°03' W 093°16'0 0.2
2017-Dec-06 22:00N 30°04' W 093°16'0 0.0
2017-Dec-06 21:31N 30°04' W 093°16'0 0.1
2017-Dec-06 21:01N 30°04' W 093°16'  
2017-Dec-03 08:18N 31°44' W 091°23'311.1
2017-Dec-03 08:00N 31°47' W 091°22'5 9.3
2017-Dec-03 07:27N 31°51' W 091°19'10 9.3
2017-Dec-03 06:22N 31°59' W 091°11'410.4
2017-Dec-03 05:59N 31°59' W 091°06'510.6
2017-Dec-03 05:30N 32°04' W 091°04'5 9.1
2017-Dec-03 05:00N 32°08' W 091°06'5 9.6
2017-Dec-03 04:30N 32°08' W 091°00'611.2
2017-Dec-03 04:00N 32°14' W 090°59'510.6
2017-Dec-03 03:30N 32°18' W 090°55'3 6.5
2017-Dec-03 03:00N 32°21' W 090°57'4 7.5
2017-Dec-03 02:30N 32°24' W 090°59'510.1
2017-Dec-03 02:00N 32°27' W 091°04'5 9.5
2017-Dec-03 01:30N 32°31' W 091°06'510.0
2017-Dec-03 01:00N 32°36' W 091°08'9 8.8
2017-Dec-02 23:59N 32°44' W 091°03'  
Track history (hours):
 
Tides and Currents Weather Stations Pressure Air Temp Water Temp Dewpoint Dewpoint Depression Visibility Wind Speed Wind Dir Waves Ship Positions

Robert G. Stone, Jr.

Owner: Kirby Inland Marine, LP, Houston, TX. More information available from US FCC via Universal Licensing System and Coast Guard Vessel Documentation Center.

Last reported at 2017-Dec-11 14:46 UTC. Time now 2017-Dec-13 07:20 UTC.
Position N 29°48' W 091°49'.

Length 210 m; draft 2.8 m.

Type: . MMSI: 367146780.

Date/timePositionNaut miles runAvg speedWind from/ knotsBaromVisibWave heightAir tempDewpointWater temp
2017-Dec-11 14:46N 29°48' W 091°49'1 5.3
2017-Dec-11 14:31N 29°49' W 091°49'3 5.3
2017-Dec-11 14:00N 29°51' W 091°52'3 6.4
2017-Dec-11 13:30N 29°51' W 091°55'3 5.5
2017-Dec-11 13:00N 29°50' W 091°58'3 5.8
2017-Dec-11 12:31N 29°49' W 092°02'3 5.4
2017-Dec-11 11:58N 29°48' W 092°05'3 5.5
2017-Dec-11 11:30N 29°47' W 092°07'3 5.8
2017-Dec-11 11:00N 29°47' W 092°11'2 4.5
2017-Dec-11 10:30N 29°47' W 092°13'0 0.9
2017-Dec-11 10:01N 29°48' W 092°14'1 1.7
2017-Dec-11 09:31N 29°48' W 092°14'3 5.8
2017-Dec-11 09:01N 29°49' W 092°17'2 3.9
2017-Dec-11 08:31N 29°50' W 092°19'2 4.7
2017-Dec-11 08:00N 29°51' W 092°22'2 3.3
2017-Dec-11 07:30N 29°52' W 092°23'3 5.1
2017-Dec-11 06:51N 29°53' W 092°27'33 5.6
2017-Dec-11 00:53N 29°56' W 093°05'2 5.2
2017-Dec-11 00:30N 29°56' W 093°07'3 5.1
2017-Dec-11 00:01N 29°56' W 093°10'3 5.3
2017-Dec-10 23:31N 29°59' W 093°12'2 4.9
2017-Dec-10 23:01N 30°00' W 093°14'2 4.0
2017-Dec-10 22:31N 30°02' W 093°15'2 5.0
2017-Dec-10 22:00N 30°04' W 093°16'2 3.2
2017-Dec-10 21:30N 30°05' W 093°18'1 2.1
2017-Dec-10 21:00N 30°06' W 093°19'3 5.2
2017-Dec-10 20:31N 30°04' W 093°21'2 4.1
2017-Dec-10 20:00N 30°04' W 093°23'2 4.4
2017-Dec-10 19:30N 30°04' W 093°25'3 5.7
2017-Dec-10 19:01N 30°04' W 093°29'3 5.7
2017-Dec-10 18:30N 30°04' W 093°32'3 5.7
2017-Dec-10 17:57N 30°04' W 093°36'3 6.7
2017-Dec-10 17:28N 30°04' W 093°39'12 7.1
2017-Dec-10 15:49N 29°58' W 093°51'3 8.2
2017-Dec-10 15:30N 29°56' W 093°53'5 9.0
2017-Dec-10 15:00N 29°52' W 093°56'56 1.4
2017-Dec-08 23:01N 29°21' W 094°49'2 7.7
2017-Dec-08 22:49N 29°22' W 094°47'2 7.7
2017-Dec-08 22:30N 29°24' W 094°45'67 2.7
2017-Dec-07 21:32N 30°03' W 093°42'1 7.2
2017-Dec-07 21:24N 30°04' W 093°41'3 7.4
2017-Dec-07 21:01N 30°04' W 093°38'3 6.7
2017-Dec-07 20:31N 30°04' W 093°34'3 6.0
2017-Dec-07 20:01N 30°04' W 093°31'3 5.0
2017-Dec-07 19:31N 30°04' W 093°28'3 6.2
2017-Dec-07 19:01N 30°04' W 093°24'3 5.3
2017-Dec-07 18:31N 30°04' W 093°21'2 4.6
2017-Dec-07 18:01N 30°05' W 093°20'1 1.9
2017-Dec-07 17:31N 30°06' W 093°19'0 0.1
2017-Dec-07 17:01N 30°06' W 093°19'0 0.0
2017-Dec-07 16:31N 30°06' W 093°19'0 0.4
2017-Dec-07 16:00N 30°06' W 093°18'1 2.8
2017-Dec-07 15:30N 30°05' W 093°17'1 1.5
2017-Dec-07 15:00N 30°05' W 093°17'0 0.0
2017-Dec-07 14:31N 30°05' W 093°17'0 0.0
2017-Dec-07 14:01N 30°05' W 093°17'0 0.0
2017-Dec-07 13:31N 30°05' W 093°17'0 0.0
2017-Dec-07 13:00N 30°05' W 093°17'0 0.1
2017-Dec-07 12:30N 30°05' W 093°17'0 0.0
2017-Dec-07 12:01N 30°05' W 093°17'0 0.6
2017-Dec-07 11:31N 30°04' W 093°16'0 0.0
2017-Dec-07 11:01N 30°04' W 093°16'0 0.0
2017-Dec-07 10:31N 30°04' W 093°16'0 0.0
2017-Dec-07 10:01N 30°04' W 093°16'0 0.0
2017-Dec-07 09:31N 30°04' W 093°16'0 0.0
2017-Dec-07 09:01N 30°04' W 093°16'0 0.0
2017-Dec-07 08:31N 30°04' W 093°16'0 0.0
2017-Dec-07 08:01N 30°04' W 093°16'0 0.1
2017-Dec-07 07:31N 30°04' W 093°16'0 0.1
2017-Dec-07 07:01N 30°04' W 093°16'0 0.0
2017-Dec-07 06:30N 30°04' W 093°16'0 0.0
2017-Dec-07 06:01N 30°04' W 093°16'0 0.0
2017-Dec-07 05:31N 30°04' W 093°16'0 0.0
2017-Dec-07 05:01N 30°04' W 093°16'0 0.0
2017-Dec-07 04:31N 30°04' W 093°16'0 0.1
2017-Dec-07 04:01N 30°04' W 093°16'0 0.0
2017-Dec-07 03:31N 30°04' W 093°16'0 0.0
2017-Dec-07 03:01N 30°04' W 093°16'0 0.0
2017-Dec-07 02:31N 30°04' W 093°16'0 0.0
2017-Dec-07 02:01N 30°04' W 093°16'0 0.1
2017-Dec-06 23:11N 30°04' W 093°16'0 0.0
2017-Dec-06 23:00N 30°04' W 093°16'1 1.5
2017-Dec-06 22:31N 30°03' W 093°16'0 0.2
2017-Dec-06 22:00N 30°04' W 093°16'0 0.0
2017-Dec-06 21:31N 30°04' W 093°16'0 0.1
2017-Dec-06 21:01N 30°04' W 093°16'  
2017-Dec-03 08:18N 31°44' W 091°23'311.1
2017-Dec-03 08:00N 31°47' W 091°22'5 9.3
2017-Dec-03 07:27N 31°51' W 091°19'10 9.3
2017-Dec-03 06:22N 31°59' W 091°11'410.4
2017-Dec-03 05:59N 31°59' W 091°06'510.6
2017-Dec-03 05:30N 32°04' W 091°04'5 9.1
2017-Dec-03 05:00N 32°08' W 091°06'5 9.6
2017-Dec-03 04:30N 32°08' W 091°00'611.2
2017-Dec-03 04:00N 32°14' W 090°59'510.6
2017-Dec-03 03:30N 32°18' W 090°55'3 6.5
2017-Dec-03 03:00N 32°21' W 090°57'4 7.5
2017-Dec-03 02:30N 32°24' W 090°59'510.1
2017-Dec-03 02:00N 32°27' W 091°04'5 9.5
2017-Dec-03 01:30N 32°31' W 091°06'510.0
2017-Dec-03 01:00N 32°36' W 091°08'9 8.8
2017-Dec-02 23:59N 32°44' W 091°03'  

Dump ship's entire track history